Buoy 16575

sailwx.info

Track history (hours):
 
Tides and Currents Weather Stations Pressure Air Temp Water Temp Dewpoint Dewpoint Depression Visibility Wind Speed Wind Dir Waves Ship Positions

Drifting buoy 16575

Last reported at 2014-Nov-27 01:00 UTC. Time now 2014-Nov-27 02:41 UTC.
Position S 28°05' E 060°17'.

Barometer 1012.7 mb
Water temperature 23.1 ° C

Date/timePositionNaut miles runAvg speedWind from/ knotsBaromVisibWave heightAir tempDewpointWater temp
2014-Nov-27 01:00S 28°05' E 060°17'0 0.0 1012.7 23.1
2014-Nov-27 00:00S 28°05' E 060°17'1 0.5 1013.4 23.2
2014-Nov-26 23:00S 28°05' E 060°17'0 0.0 1013.4 23.3
2014-Nov-26 22:00S 28°05' E 060°17'1 0.5 1013.6 23.3
2014-Nov-26 21:00S 28°05' E 060°16'0 0.0 1014.0 23.3
2014-Nov-26 20:00S 28°05' E 060°16'1 1.2 1014.0 23.3
2014-Nov-26 19:00S 28°05' E 060°15'1 1.3 1014.3 23.3
2014-Nov-26 18:00S 28°04' E 060°16'1 0.8 1014.8 23.4
2014-Nov-26 17:00S 28°03' E 060°15'0 0.0 1014.4 23.3
2014-Nov-26 16:00S 28°03' E 060°15'2 0.8 1014.2 23.4
2014-Nov-26 14:00S 28°02' E 060°17'1 0.8 1012.1 23.4
2014-Nov-26 13:00S 28°02' E 060°16'1 0.6 1009.2 23.5
2014-Nov-26 12:00S 28°01' E 060°16'1 1.3 1008.0 23.5
2014-Nov-26 11:00S 27°60' E 060°16'0 0.1 1008.8 23.6
2014-Nov-26 09:00S 28°00' E 060°17'3 1.0 1020.2 23.6
2014-Nov-26 06:00S 27°58' E 060°19'0 0.4 1020.5 23.5
2014-Nov-26 05:00S 27°57' E 060°19'1 0.8 1011.1 23.4
2014-Nov-26 04:00S 27°57' E 060°20'1 0.5 1017.8 23.4
2014-Nov-26 03:00S 27°57' E 060°20'1 0.6 1026.6 23.3
2014-Nov-26 01:00S 27°58' E 060°22'1 0.6 1016.1 23.3
2014-Nov-26 00:00S 27°58' E 060°22'0 0.0 1015.9 23.3
2014-Nov-25 23:00S 27°58' E 060°22'1 0.5 1016.0 23.3
2014-Nov-25 22:00S 27°58' E 060°21'0 0.0 1016.5 23.3
2014-Nov-25 21:00S 27°58' E 060°21'1 0.3 1016.8 23.2
2014-Nov-25 19:00S 27°58' E 060°21'1 0.8 1018.1 23.2
2014-Nov-25 18:00S 27°57' E 060°22'1 0.6 1018.6 23.2
2014-Nov-25 17:00S 27°56' E 060°21'2 1.5 1018.6 23.2
2014-Nov-25 16:00S 27°55' E 060°23'0 0.2 1018.0 23.2
2014-Nov-25 15:00S 27°55' E 060°23'1 0.8 1017.3 23.3
2014-Nov-25 14:00S 27°55' E 060°23'1 0.5 1017.7 23.4
2014-Nov-25 13:00S 27°55' E 060°24'1 0.8 1016.5 23.3
2014-Nov-25 12:00S 27°54' E 060°25'1 0.5 1015.2 23.4
2014-Nov-25 11:00S 27°54' E 060°25'2 1.7 1014.7 23.4
2014-Nov-25 10:00S 27°53' E 060°27'2 1.7 1015.9 23.4
2014-Nov-25 09:00S 27°53' E 060°29'1 1.1 1020.2 23.3
2014-Nov-25 08:00S 27°53' E 060°30'0 0.0 1022.7 23.2
2014-Nov-25 07:00S 27°53' E 060°30'1 1.2 1020.3 23.2
2014-Nov-25 06:00S 27°52' E 060°31'2 1.6 1024.7 23.1
2014-Nov-25 05:00S 27°52' E 060°33'0 0.0 1024.1 23.1
2014-Nov-25 04:00S 27°52' E 060°33'1 1.3 1021.1 23.1
2014-Nov-25 03:00S 27°53' E 060°34'1 0.5 1021.5 23.1
2014-Nov-25 02:00S 27°53' E 060°34'1 1.1 1026.5 23.1
2014-Nov-25 01:00S 27°53' E 060°35'0 0.0 1020.0 23.1
2014-Nov-25 00:00S 27°53' E 060°35'1 1.2 1020.2 23.1
2014-Nov-24 23:00S 27°55' E 060°35'0 0.0 1020.1 23.1
2014-Nov-24 22:00S 27°55' E 060°35'1 0.5 1020.5 23.1
2014-Nov-24 21:00S 27°55' E 060°35'1 0.3 1021.3 23.1
2014-Nov-24 19:00S 27°55' E 060°35'1 0.4 1021.7 23.2
2014-Nov-24 17:00S 27°54' E 060°35'1 0.8 1021.4 23.3
2014-Nov-24 16:00S 27°53' E 060°35'2 0.8 1020.3 23.3
2014-Nov-24 13:00S 27°52' E 060°37'1 0.8 1013.3 23.3
2014-Nov-24 12:00S 27°51' E 060°38'2 2.0 1014.7 23.3
2014-Nov-24 11:00S 27°50' E 060°40'0 0.0 1017.2 23.3
2014-Nov-24 10:00S 27°50' E 060°40'2 1.7 1019.2 23.2
2014-Nov-24 09:00S 27°50' E 060°41'0 0.3 1016.7 23.2
2014-Nov-24 08:00S 27°50' E 060°41'2 2.2 1021.0 23.2
2014-Nov-24 07:00S 27°50' E 060°44'2 0.8 1025.7 23.1
2014-Nov-24 05:00S 27°51' E 060°45'0 0.2 1019.2 23.1
2014-Nov-24 04:00S 27°51' E 060°45'2 1.0 1025.6 23.1
2014-Nov-24 02:00S 27°53' E 060°46'0 0.0 1026.8 23.1
2014-Nov-24 01:00S 27°53' E 060°46'1 0.6 1019.7 23.1
2014-Nov-24 00:00S 27°53' E 060°46'0 0.0 1020.0 23.1
2014-Nov-23 23:00S 27°53' E 060°46'1 0.4 1019.9 23.1
2014-Nov-23 21:00S 27°54' E 060°46'0 0.0 1020.5 23.2
2014-Nov-23 20:00S 27°54' E 060°46'0 0.0 1021.2 23.3
2014-Nov-23 18:00S 27°54' E 060°46'0 0.0 1021.2 23.1
2014-Nov-23 17:00S 27°54' E 060°46'2 1.8 1021.5 23.1
2014-Nov-23 16:00S 27°52' E 060°46'1 0.3 1020.0 23.2
2014-Nov-23 14:00S 27°52' E 060°46'1 0.6 1012.2 23.3
2014-Nov-23 13:00S 27°52' E 060°46'1 0.5 1017.9 23.4
2014-Nov-23 12:00S 27°52' E 060°47'1 1.2 1015.4 23.5
2014-Nov-23 11:00S 27°51' E 060°48'2 1.6 1012.0 23.7
2014-Nov-23 10:00S 27°51' E 060°50'3 1.3 1018.3 23.6
2014-Nov-23 08:00S 27°51' E 060°53'1 0.3 1022.2 23.5
2014-Nov-23 05:00S 27°52' E 060°53'1 0.8 1024.1 23.1
2014-Nov-23 04:00S 27°52' E 060°54'0 0.0 1024.8 22.9
2014-Nov-23 03:00S 27°52' E 060°54'1 0.3 1025.1 22.9
2014-Nov-23 01:00S 27°53' E 060°54'0 0.0 1020.1 22.8
2014-Nov-23 00:00S 27°53' E 060°54'0 0.1 1019.6 22.8
2014-Nov-22 23:00S 27°53' E 060°54'1 0.8 1018.9 22.9
2014-Nov-22 22:00S 27°53' E 060°55'1 1.2 1019.2 22.9
2014-Nov-22 21:00S 27°55' E 060°55'0 0.2 1020.1 22.7
2014-Nov-22 20:00S 27°54' E 060°55'2 0.8 1019.9 22.8
2014-Nov-22 18:00S 27°56' E 060°54'1 0.4 1020.6 22.9
2014-Nov-22 16:00S 27°56' E 060°53'0 0.0 1017.6 22.8
2014-Nov-22 15:00S 27°56' E 060°53'1 0.5 1010.6 23.0
2014-Nov-22 14:00S 27°56' E 060°53'1 0.6 1010.7 23.1
2014-Nov-22 13:00S 27°56' E 060°53'1 1.2 1015.7 23.3
2014-Nov-22 12:00S 27°55' E 060°54'1 0.4 1013.5 23.3
2014-Nov-22 10:00S 27°55' E 060°55'0 0.0 1021.8 23.1
2014-Nov-22 09:00S 27°55' E 060°55'2 0.7 1031.1 22.8
2014-Nov-22 06:00S 27°55' E 060°57'1 0.5 1020.0 22.7
2014-Nov-22 05:00S 27°55' E 060°58'0 0.0 1020.5 22.7
2014-Nov-22 04:00S 27°55' E 060°58'2 2.0 1020.2 22.6
2014-Nov-22 03:00S 27°56' E 060°59'0 0.0 1019.6 22.6
2014-Nov-22 02:00S 27°56' E 060°59'0 0.0 1016.4 22.6
2014-Nov-22 01:00S 27°56' E 060°59'1 1.2 1016.4 22.6
2014-Nov-22 00:00S 27°56' E 061°01'1 0.6 1016.3 22.7
2014-Nov-21 23:00S 27°57' E 061°01'0 0.0 1015.9 22.7
2014-Nov-21 22:00S 27°57' E 061°01'1 1.2 1016.2 22.7
2014-Nov-21 21:00S 27°58' E 061°01'1 0.8 1016.7 22.7
2014-Nov-21 20:00S 27°59' E 061°00'1 0.3 1017.3 22.7
2014-Nov-21 18:00S 27°59' E 060°59'1 1.2 1014.4 22.7
2014-Nov-21 17:00S 27°59' E 060°58'2 1.7 1017.2 22.7
2014-Nov-21 16:00S 27°59' E 060°56'0 0.2 1016.6 22.8
2014-Nov-21 15:00S 27°59' E 060°56'1 1.3 1015.6 22.8
2014-Nov-21 14:00S 27°58' E 060°55'1 0.8 1013.6 22.9
2014-Nov-21 13:00S 27°58' E 060°55'0 0.0 1012.4 22.9
2014-Nov-21 12:00S 27°58' E 060°55'3 1.4 1012.1 22.9
2014-Nov-21 10:00S 27°55' E 060°53'1 1.2 1012.6 22.8
2014-Nov-21 09:00S 27°54' E 060°53'1 1.2 1017.6 22.7
2014-Nov-21 08:00S 27°55' E 060°53'2 1.2 1018.7 22.7
2014-Nov-21 06:00S 27°53' E 060°53'1 0.6 1017.6 22.6
2014-Nov-21 05:00S 27°52' E 060°53'1 1.3 1015.1 22.6
2014-Nov-21 04:00S 27°51' E 060°53'1 0.6 1021.1 22.5
2014-Nov-21 02:00S 27°50' E 060°53'0 0.0 1017.1 22.6
2014-Nov-21 01:00S 27°50' E 060°53'1 1.1 1016.3 22.6
2014-Nov-21 00:00S 27°50' E 060°55'1 1.2 1016.2 22.7
2014-Nov-20 23:00S 27°49' E 060°55'0 0.0 1016.5 22.7
2014-Nov-20 22:00S 27°49' E 060°55'1 0.2 1016.6 22.7
2014-Nov-20 19:00S 27°48' E 060°55'1 0.8 1017.9 22.7
2014-Nov-20 18:00S 27°49' E 060°54'0 0.5 1018.1 22.8
2014-Nov-20 17:00S 27°48' E 060°54'0 0.0 1017.9 22.7
2014-Nov-20 16:00S 27°48' E 060°54'0 0.2 1017.2 22.7
2014-Nov-20 14:00S 27°49' E 060°54'1 0.8 1013.0 22.7
2014-Nov-20 13:00S 27°48' E 060°53'1 1.3 1016.7 22.7
2014-Nov-20 12:00S 27°47' E 060°53'0 0.0 1010.5 22.7
2014-Nov-20 11:00S 27°47' E 060°53'1 1.3 1012.1 22.7
2014-Nov-20 10:00S 27°46' E 060°52'0 0.0 1012.9 22.7
2014-Nov-20 09:00S 27°46' E 060°52'2 0.8 1016.2 22.6
2014-Nov-20 06:00S 27°43' E 060°52'1 0.5 1019.2 22.4
2014-Nov-20 05:00S 27°43' E 060°53'1 1.2 1019.7 22.3
2014-Nov-20 04:00S 27°42' E 060°53'1 0.8 1022.0 22.3
2014-Nov-20 03:00S 27°41' E 060°53'1 0.8 1023.2 22.3
2014-Nov-20 02:00S 27°41' E 060°54'1 0.6 1022.8 22.3
2014-Nov-20 01:00S 27°41' E 060°55'1 0.8 1016.2 22.3
2014-Nov-20 00:00S 27°40' E 060°55'1 0.8 1016.5 22.3
2014-Nov-19 23:00S 27°40' E 060°56'0 0.4 1016.9 22.3
2014-Nov-19 22:00S 27°40' E 060°56'1 0.3 1016.6 22.3
2014-Nov-19 20:00S 27°40' E 060°57'2 0.8 1016.9 22.3
2014-Nov-19 18:00S 27°40' E 060°59'1 0.8 1017.4 22.6
2014-Nov-19 17:00S 27°40' E 060°58'0 0.0 1017.3 22.7
2014-Nov-19 16:00S 27°40' E 060°58'1 0.4 1015.6 22.8
2014-Nov-19 14:00S 27°40' E 060°59'1 0.8 1009.1 23.1
2014-Nov-19 13:00S 27°40' E 060°58'1 0.8 1013.0 23.1
2014-Nov-19 12:00S 27°40' E 060°58'2 1.6 1014.8 23.2
2014-Nov-19 11:00S 27°38' E 060°56'0 0.2 1013.3 23.3
2014-Nov-19 10:00S 27°39' E 060°56'0 0.2 1017.6 23.3
2014-Nov-19 09:00S 27°38' E 060°56'5 1.3 1016.4 23.2
2014-Nov-19 05:00S 27°34' E 060°55'1 0.8 1019.3 22.7
2014-Nov-19 04:00S 27°33' E 060°55'1 0.8 1020.6 22.7
2014-Nov-19 03:00S 27°32' E 060°56'1 0.8 1023.6 22.7
2014-Nov-19 02:00S 27°32' E 060°56'2 2.1 1028.6 22.7
2014-Nov-19 01:00S 27°30' E 060°58'0 0.0 1017.1 22.7
2014-Nov-19 00:00S 27°30' E 060°58'2 0.8 1015.7 22.9
2014-Nov-18 22:00S 27°29' E 060°59'2 1.7 1016.8 23.0
2014-Nov-18 21:00S 27°28' E 061°01'0 0.0 1018.0 23.1
2014-Nov-18 20:00S 27°28' E 061°01'2 1.1 1020.2 23.2
2014-Nov-18 18:00S 27°29' E 061°03'0 0.4 1018.2 23.5
2014-Nov-18 17:00S 27°29' E 061°03'1 1.2 1017.3 23.6
2014-Nov-18 16:00S 27°30' E 061°04'0 0.0 1014.4 23.6
2014-Nov-18 15:00S 27°30' E 061°04'1 0.5 1004.6 23.8
2014-Nov-18 14:00S 27°30' E 061°04'0 0.4 1009.6 24.1
2014-Nov-18 13:00S 27°31' E 061°04'1 1.2 1013.0 24.2
2014-Nov-18 12:00S 27°31' E 061°02'0 0.4 1013.9 24.2
2014-Nov-18 11:00S 27°31' E 061°02'3 1.4 1017.5 23.9
2014-Nov-18 09:00S 27°29' E 061°01'0 0.3 1017.2 23.2
2014-Nov-18 08:00S 27°29' E 061°00'1 0.3 1018.4 23.1
2014-Nov-18 06:00S 27°28' E 061°00'1 1.2 1020.6 22.7
2014-Nov-18 05:00S 27°28' E 060°59'2 2.1 1022.4 22.4
2014-Nov-18 04:00S 27°26' E 061°00'0 0.0 1022.1 22.3
2014-Nov-18 03:00S 27°26' E 061°00'1 0.7 1022.1 22.2
2014-Nov-18 02:00S 27°25' E 061°00'1 0.6 1027.8 22.2
2014-Nov-18 01:00S 27°25' E 061°01'1 0.8 1017.8 22.2
2014-Nov-18 00:00S 27°24' E 061°01'1 0.6 1016.9 22.2
2014-Nov-17 23:00S 27°23' E 061°01'2 1.7 1018.0 22.2
2014-Nov-17 22:00S 27°23' E 061°03'0 0.0 1017.3 22.2
2014-Nov-17 21:00S 27°23' E 061°03'0 0.0 1017.3 22.2
2014-Nov-17 20:00S 27°23' E 061°03'2 2.1 1017.4 22.2
2014-Nov-17 19:00S 27°23' E 061°05'1 1.1 1018.1 22.2
2014-Nov-17 18:00S 27°23' E 061°07'1 0.6 1017.9 22.2
2014-Nov-17 17:00S 27°22' E 061°07'0 0.0 1016.6 22.2
2014-Nov-17 16:00S 27°22' E 061°07'2 0.8 1015.4 22.3
2014-Nov-17 14:00S 27°22' E 061°08'0 0.0 1009.9 22.3
2014-Nov-17 13:00S 27°22' E 061°08'1 0.8 1014.1 22.4
2014-Nov-17 12:00S 27°22' E 061°09'1 0.4 1014.3 22.6
2014-Nov-17 09:00S 27°21' E 061°10'2 0.7 1014.4 22.8
2014-Nov-17 06:00S 27°19' E 061°11'1 0.6 1023.3 22.3
2014-Nov-17 05:00S 27°19' E 061°11'1 0.7 1019.6 22.1
2014-Nov-17 03:00S 27°17' E 061°12'1 1.3 1021.2 22.1
2014-Nov-17 02:00S 27°16' E 061°13'1 1.3 1026.6 22.1
2014-Nov-17 01:00S 27°15' E 061°13'   1017.9 22.1
Track history (hours):
 
Tides and Currents Weather Stations Pressure Air Temp Water Temp Dewpoint Dewpoint Depression Visibility Wind Speed Wind Dir Waves Ship Positions

Drifting buoy 16575

Last reported at 2014-Nov-27 01:00 UTC. Time now 2014-Nov-27 02:41 UTC.
Position S 28°05' E 060°17'.

Barometer 1012.7 mb
Water temperature 23.1 ° C

Date/timePositionNaut miles runAvg speedWind from/ knotsBaromVisibWave heightAir tempDewpointWater temp
2014-Nov-27 01:00S 28°05' E 060°17'0 0.0 1012.7 23.1
2014-Nov-27 00:00S 28°05' E 060°17'1 0.5 1013.4 23.2
2014-Nov-26 23:00S 28°05' E 060°17'0 0.0 1013.4 23.3
2014-Nov-26 22:00S 28°05' E 060°17'1 0.5 1013.6 23.3
2014-Nov-26 21:00S 28°05' E 060°16'0 0.0 1014.0 23.3
2014-Nov-26 20:00S 28°05' E 060°16'1 1.2 1014.0 23.3
2014-Nov-26 19:00S 28°05' E 060°15'1 1.3 1014.3 23.3
2014-Nov-26 18:00S 28°04' E 060°16'1 0.8 1014.8 23.4
2014-Nov-26 17:00S 28°03' E 060°15'0 0.0 1014.4 23.3
2014-Nov-26 16:00S 28°03' E 060°15'2 0.8 1014.2 23.4
2014-Nov-26 14:00S 28°02' E 060°17'1 0.8 1012.1 23.4
2014-Nov-26 13:00S 28°02' E 060°16'1 0.6 1009.2 23.5
2014-Nov-26 12:00S 28°01' E 060°16'1 1.3 1008.0 23.5
2014-Nov-26 11:00S 27°60' E 060°16'0 0.1 1008.8 23.6
2014-Nov-26 09:00S 28°00' E 060°17'3 1.0 1020.2 23.6
2014-Nov-26 06:00S 27°58' E 060°19'0 0.4 1020.5 23.5
2014-Nov-26 05:00S 27°57' E 060°19'1 0.8 1011.1 23.4
2014-Nov-26 04:00S 27°57' E 060°20'1 0.5 1017.8 23.4
2014-Nov-26 03:00S 27°57' E 060°20'1 0.6 1026.6 23.3
2014-Nov-26 01:00S 27°58' E 060°22'1 0.6 1016.1 23.3
2014-Nov-26 00:00S 27°58' E 060°22'0 0.0 1015.9 23.3
2014-Nov-25 23:00S 27°58' E 060°22'1 0.5 1016.0 23.3
2014-Nov-25 22:00S 27°58' E 060°21'0 0.0 1016.5 23.3
2014-Nov-25 21:00S 27°58' E 060°21'1 0.3 1016.8 23.2
2014-Nov-25 19:00S 27°58' E 060°21'1 0.8 1018.1 23.2
2014-Nov-25 18:00S 27°57' E 060°22'1 0.6 1018.6 23.2
2014-Nov-25 17:00S 27°56' E 060°21'2 1.5 1018.6 23.2
2014-Nov-25 16:00S 27°55' E 060°23'0 0.2 1018.0 23.2
2014-Nov-25 15:00S 27°55' E 060°23'1 0.8 1017.3 23.3
2014-Nov-25 14:00S 27°55' E 060°23'1 0.5 1017.7 23.4
2014-Nov-25 13:00S 27°55' E 060°24'1 0.8 1016.5 23.3
2014-Nov-25 12:00S 27°54' E 060°25'1 0.5 1015.2 23.4
2014-Nov-25 11:00S 27°54' E 060°25'2 1.7 1014.7 23.4
2014-Nov-25 10:00S 27°53' E 060°27'2 1.7 1015.9 23.4
2014-Nov-25 09:00S 27°53' E 060°29'1 1.1 1020.2 23.3
2014-Nov-25 08:00S 27°53' E 060°30'0 0.0 1022.7 23.2
2014-Nov-25 07:00S 27°53' E 060°30'1 1.2 1020.3 23.2
2014-Nov-25 06:00S 27°52' E 060°31'2 1.6 1024.7 23.1
2014-Nov-25 05:00S 27°52' E 060°33'0 0.0 1024.1 23.1
2014-Nov-25 04:00S 27°52' E 060°33'1 1.3 1021.1 23.1
2014-Nov-25 03:00S 27°53' E 060°34'1 0.5 1021.5 23.1
2014-Nov-25 02:00S 27°53' E 060°34'1 1.1 1026.5 23.1
2014-Nov-25 01:00S 27°53' E 060°35'0 0.0 1020.0 23.1
2014-Nov-25 00:00S 27°53' E 060°35'1 1.2 1020.2 23.1
2014-Nov-24 23:00S 27°55' E 060°35'0 0.0 1020.1 23.1
2014-Nov-24 22:00S 27°55' E 060°35'1 0.5 1020.5 23.1
2014-Nov-24 21:00S 27°55' E 060°35'1 0.3 1021.3 23.1
2014-Nov-24 19:00S 27°55' E 060°35'1 0.4 1021.7 23.2
2014-Nov-24 17:00S 27°54' E 060°35'1 0.8 1021.4 23.3
2014-Nov-24 16:00S 27°53' E 060°35'2 0.8 1020.3 23.3
2014-Nov-24 13:00S 27°52' E 060°37'1 0.8 1013.3 23.3
2014-Nov-24 12:00S 27°51' E 060°38'2 2.0 1014.7 23.3
2014-Nov-24 11:00S 27°50' E 060°40'0 0.0 1017.2 23.3
2014-Nov-24 10:00S 27°50' E 060°40'2 1.7 1019.2 23.2
2014-Nov-24 09:00S 27°50' E 060°41'0 0.3 1016.7 23.2
2014-Nov-24 08:00S 27°50' E 060°41'2 2.2 1021.0 23.2
2014-Nov-24 07:00S 27°50' E 060°44'2 0.8 1025.7 23.1
2014-Nov-24 05:00S 27°51' E 060°45'0 0.2 1019.2 23.1
2014-Nov-24 04:00S 27°51' E 060°45'2 1.0 1025.6 23.1
2014-Nov-24 02:00S 27°53' E 060°46'0 0.0 1026.8 23.1
2014-Nov-24 01:00S 27°53' E 060°46'1 0.6 1019.7 23.1
2014-Nov-24 00:00S 27°53' E 060°46'0 0.0 1020.0 23.1
2014-Nov-23 23:00S 27°53' E 060°46'1 0.4 1019.9 23.1
2014-Nov-23 21:00S 27°54' E 060°46'0 0.0 1020.5 23.2
2014-Nov-23 20:00S 27°54' E 060°46'0 0.0 1021.2 23.3
2014-Nov-23 18:00S 27°54' E 060°46'0 0.0 1021.2 23.1
2014-Nov-23 17:00S 27°54' E 060°46'2 1.8 1021.5 23.1
2014-Nov-23 16:00S 27°52' E 060°46'1 0.3 1020.0 23.2
2014-Nov-23 14:00S 27°52' E 060°46'1 0.6 1012.2 23.3
2014-Nov-23 13:00S 27°52' E 060°46'1 0.5 1017.9 23.4
2014-Nov-23 12:00S 27°52' E 060°47'1 1.2 1015.4 23.5
2014-Nov-23 11:00S 27°51' E 060°48'2 1.6 1012.0 23.7
2014-Nov-23 10:00S 27°51' E 060°50'3 1.3 1018.3 23.6
2014-Nov-23 08:00S 27°51' E 060°53'1 0.3 1022.2 23.5
2014-Nov-23 05:00S 27°52' E 060°53'1 0.8 1024.1 23.1
2014-Nov-23 04:00S 27°52' E 060°54'0 0.0 1024.8 22.9
2014-Nov-23 03:00S 27°52' E 060°54'1 0.3 1025.1 22.9
2014-Nov-23 01:00S 27°53' E 060°54'0 0.0 1020.1 22.8
2014-Nov-23 00:00S 27°53' E 060°54'0 0.1 1019.6 22.8
2014-Nov-22 23:00S 27°53' E 060°54'1 0.8 1018.9 22.9
2014-Nov-22 22:00S 27°53' E 060°55'1 1.2 1019.2 22.9
2014-Nov-22 21:00S 27°55' E 060°55'0 0.2 1020.1 22.7
2014-Nov-22 20:00S 27°54' E 060°55'2 0.8 1019.9 22.8
2014-Nov-22 18:00S 27°56' E 060°54'1 0.4 1020.6 22.9
2014-Nov-22 16:00S 27°56' E 060°53'0 0.0 1017.6 22.8
2014-Nov-22 15:00S 27°56' E 060°53'1 0.5 1010.6 23.0
2014-Nov-22 14:00S 27°56' E 060°53'1 0.6 1010.7 23.1
2014-Nov-22 13:00S 27°56' E 060°53'1 1.2 1015.7 23.3
2014-Nov-22 12:00S 27°55' E 060°54'1 0.4 1013.5 23.3
2014-Nov-22 10:00S 27°55' E 060°55'0 0.0 1021.8 23.1
2014-Nov-22 09:00S 27°55' E 060°55'2 0.7 1031.1 22.8
2014-Nov-22 06:00S 27°55' E 060°57'1 0.5 1020.0 22.7
2014-Nov-22 05:00S 27°55' E 060°58'0 0.0 1020.5 22.7
2014-Nov-22 04:00S 27°55' E 060°58'2 2.0 1020.2 22.6
2014-Nov-22 03:00S 27°56' E 060°59'0 0.0 1019.6 22.6
2014-Nov-22 02:00S 27°56' E 060°59'0 0.0 1016.4 22.6
2014-Nov-22 01:00S 27°56' E 060°59'1 1.2 1016.4 22.6
2014-Nov-22 00:00S 27°56' E 061°01'1 0.6 1016.3 22.7
2014-Nov-21 23:00S 27°57' E 061°01'0 0.0 1015.9 22.7
2014-Nov-21 22:00S 27°57' E 061°01'1 1.2 1016.2 22.7
2014-Nov-21 21:00S 27°58' E 061°01'1 0.8 1016.7 22.7
2014-Nov-21 20:00S 27°59' E 061°00'1 0.3 1017.3 22.7
2014-Nov-21 18:00S 27°59' E 060°59'1 1.2 1014.4 22.7
2014-Nov-21 17:00S 27°59' E 060°58'2 1.7 1017.2 22.7
2014-Nov-21 16:00S 27°59' E 060°56'0 0.2 1016.6 22.8
2014-Nov-21 15:00S 27°59' E 060°56'1 1.3 1015.6 22.8
2014-Nov-21 14:00S 27°58' E 060°55'1 0.8 1013.6 22.9
2014-Nov-21 13:00S 27°58' E 060°55'0 0.0 1012.4 22.9
2014-Nov-21 12:00S 27°58' E 060°55'3 1.4 1012.1 22.9
2014-Nov-21 10:00S 27°55' E 060°53'1 1.2 1012.6 22.8
2014-Nov-21 09:00S 27°54' E 060°53'1 1.2 1017.6 22.7
2014-Nov-21 08:00S 27°55' E 060°53'2 1.2 1018.7 22.7
2014-Nov-21 06:00S 27°53' E 060°53'1 0.6 1017.6 22.6
2014-Nov-21 05:00S 27°52' E 060°53'1 1.3 1015.1 22.6
2014-Nov-21 04:00S 27°51' E 060°53'1 0.6 1021.1 22.5
2014-Nov-21 02:00S 27°50' E 060°53'0 0.0 1017.1 22.6
2014-Nov-21 01:00S 27°50' E 060°53'1 1.1 1016.3 22.6
2014-Nov-21 00:00S 27°50' E 060°55'1 1.2 1016.2 22.7
2014-Nov-20 23:00S 27°49' E 060°55'0 0.0 1016.5 22.7
2014-Nov-20 22:00S 27°49' E 060°55'1 0.2 1016.6 22.7
2014-Nov-20 19:00S 27°48' E 060°55'1 0.8 1017.9 22.7
2014-Nov-20 18:00S 27°49' E 060°54'0 0.5 1018.1 22.8
2014-Nov-20 17:00S 27°48' E 060°54'0 0.0 1017.9 22.7
2014-Nov-20 16:00S 27°48' E 060°54'0 0.2 1017.2 22.7
2014-Nov-20 14:00S 27°49' E 060°54'1 0.8 1013.0 22.7
2014-Nov-20 13:00S 27°48' E 060°53'1 1.3 1016.7 22.7
2014-Nov-20 12:00S 27°47' E 060°53'0 0.0 1010.5 22.7
2014-Nov-20 11:00S 27°47' E 060°53'1 1.3 1012.1 22.7
2014-Nov-20 10:00S 27°46' E 060°52'0 0.0 1012.9 22.7
2014-Nov-20 09:00S 27°46' E 060°52'2 0.8 1016.2 22.6
2014-Nov-20 06:00S 27°43' E 060°52'1 0.5 1019.2 22.4
2014-Nov-20 05:00S 27°43' E 060°53'1 1.2 1019.7 22.3
2014-Nov-20 04:00S 27°42' E 060°53'1 0.8 1022.0 22.3
2014-Nov-20 03:00S 27°41' E 060°53'1 0.8 1023.2 22.3
2014-Nov-20 02:00S 27°41' E 060°54'1 0.6 1022.8 22.3
2014-Nov-20 01:00S 27°41' E 060°55'1 0.8 1016.2 22.3
2014-Nov-20 00:00S 27°40' E 060°55'1 0.8 1016.5 22.3
2014-Nov-19 23:00S 27°40' E 060°56'0 0.4 1016.9 22.3
2014-Nov-19 22:00S 27°40' E 060°56'1 0.3 1016.6 22.3
2014-Nov-19 20:00S 27°40' E 060°57'2 0.8 1016.9 22.3
2014-Nov-19 18:00S 27°40' E 060°59'1 0.8 1017.4 22.6
2014-Nov-19 17:00S 27°40' E 060°58'0 0.0 1017.3 22.7
2014-Nov-19 16:00S 27°40' E 060°58'1 0.4 1015.6 22.8
2014-Nov-19 14:00S 27°40' E 060°59'1 0.8 1009.1 23.1
2014-Nov-19 13:00S 27°40' E 060°58'1 0.8 1013.0 23.1
2014-Nov-19 12:00S 27°40' E 060°58'2 1.6 1014.8 23.2
2014-Nov-19 11:00S 27°38' E 060°56'0 0.2 1013.3 23.3
2014-Nov-19 10:00S 27°39' E 060°56'0 0.2 1017.6 23.3
2014-Nov-19 09:00S 27°38' E 060°56'5 1.3 1016.4 23.2
2014-Nov-19 05:00S 27°34' E 060°55'1 0.8 1019.3 22.7
2014-Nov-19 04:00S 27°33' E 060°55'1 0.8 1020.6 22.7
2014-Nov-19 03:00S 27°32' E 060°56'1 0.8 1023.6 22.7
2014-Nov-19 02:00S 27°32' E 060°56'2 2.1 1028.6 22.7
2014-Nov-19 01:00S 27°30' E 060°58'0 0.0 1017.1 22.7
2014-Nov-19 00:00S 27°30' E 060°58'2 0.8 1015.7 22.9
2014-Nov-18 22:00S 27°29' E 060°59'2 1.7 1016.8 23.0
2014-Nov-18 21:00S 27°28' E 061°01'0 0.0 1018.0 23.1
2014-Nov-18 20:00S 27°28' E 061°01'2 1.1 1020.2 23.2
2014-Nov-18 18:00S 27°29' E 061°03'0 0.4 1018.2 23.5
2014-Nov-18 17:00S 27°29' E 061°03'1 1.2 1017.3 23.6
2014-Nov-18 16:00S 27°30' E 061°04'0 0.0 1014.4 23.6
2014-Nov-18 15:00S 27°30' E 061°04'1 0.5 1004.6 23.8
2014-Nov-18 14:00S 27°30' E 061°04'0 0.4 1009.6 24.1
2014-Nov-18 13:00S 27°31' E 061°04'1 1.2 1013.0 24.2
2014-Nov-18 12:00S 27°31' E 061°02'0 0.4 1013.9 24.2
2014-Nov-18 11:00S 27°31' E 061°02'3 1.4 1017.5 23.9
2014-Nov-18 09:00S 27°29' E 061°01'0 0.3 1017.2 23.2
2014-Nov-18 08:00S 27°29' E 061°00'1 0.3 1018.4 23.1
2014-Nov-18 06:00S 27°28' E 061°00'1 1.2 1020.6 22.7
2014-Nov-18 05:00S 27°28' E 060°59'2 2.1 1022.4 22.4
2014-Nov-18 04:00S 27°26' E 061°00'0 0.0 1022.1 22.3
2014-Nov-18 03:00S 27°26' E 061°00'1 0.7 1022.1 22.2
2014-Nov-18 02:00S 27°25' E 061°00'1 0.6 1027.8 22.2
2014-Nov-18 01:00S 27°25' E 061°01'1 0.8 1017.8 22.2
2014-Nov-18 00:00S 27°24' E 061°01'1 0.6 1016.9 22.2
2014-Nov-17 23:00S 27°23' E 061°01'2 1.7 1018.0 22.2
2014-Nov-17 22:00S 27°23' E 061°03'0 0.0 1017.3 22.2
2014-Nov-17 21:00S 27°23' E 061°03'0 0.0 1017.3 22.2
2014-Nov-17 20:00S 27°23' E 061°03'2 2.1 1017.4 22.2
2014-Nov-17 19:00S 27°23' E 061°05'1 1.1 1018.1 22.2
2014-Nov-17 18:00S 27°23' E 061°07'1 0.6 1017.9 22.2
2014-Nov-17 17:00S 27°22' E 061°07'0 0.0 1016.6 22.2
2014-Nov-17 16:00S 27°22' E 061°07'2 0.8 1015.4 22.3
2014-Nov-17 14:00S 27°22' E 061°08'0 0.0 1009.9 22.3
2014-Nov-17 13:00S 27°22' E 061°08'1 0.8 1014.1 22.4
2014-Nov-17 12:00S 27°22' E 061°09'1 0.4 1014.3 22.6
2014-Nov-17 09:00S 27°21' E 061°10'2 0.7 1014.4 22.8
2014-Nov-17 06:00S 27°19' E 061°11'1 0.6 1023.3 22.3
2014-Nov-17 05:00S 27°19' E 061°11'1 0.7 1019.6 22.1
2014-Nov-17 03:00S 27°17' E 061°12'1 1.3 1021.2 22.1
2014-Nov-17 02:00S 27°16' E 061°13'1 1.3 1026.6 22.1
2014-Nov-17 01:00S 27°15' E 061°13'   1017.9 22.1

Dump ship's entire track history